METAR Data
IDs: Format: Raw Decoded Include TAF

Data at: 0514 UTC 24 Sep 2018

KDET 240453Z 06005KT 6SM HZ CLR 14/11 A3024 RMK AO2 SLP238 T01390111 402060083
KDET 240353Z 06005KT 10SM CLR 14/11 A3023 RMK AO2 SLP237 T01440111
KDET 240253Z 05006KT 10SM CLR 15/11 A3024 RMK AO2 SLP238 T01500106 51013
KDET 240153Z 05006KT 10SM CLR 16/09 A3023 RMK AO2 SLP238 T01560094
KDET 240053Z 06004KT 10SM CLR 16/09 A3021 RMK AO2 SLP232 T01610094
KDET 232353Z 08004KT 10SM CLR 17/09 A3020 RMK AO2 SLP226 T01670089 10206 20167 51005
KDET 232253Z 08004KT 10SM CLR 19/08 A3019 RMK AO2 SLP225 T01890083
KDET 232153Z 13004KT 10SM CLR 20/07 A3019 RMK AO2 SLP223 T02000072
KDET 232053Z 09006KT 10SM CLR 20/08 A3018 RMK AO2 SLP220 T02000083 56014
KDET 231953Z 10006KT 10SM CLR 19/07 A3019 RMK AO2 SLP223 T01940072
KDET 231853Z 12008KT 10SM CLR 19/07 A3021 RMK AO2 SLP230 T01940067
KDET 231753Z 09004KT 10SM CLR 18/08 A3022 RMK AO2 SLP235 T01830078 10189 20094 58010
KDET 231653Z VRB03KT 10SM CLR 18/09 A3024 RMK AO2 SLP240 T01830089
KDET 231553Z 08007KT 10SM CLR 18/08 A3025 RMK AO2 SLP243 T01780083
KDET 231453Z 09007KT 10SM CLR 17/08 A3025 RMK AO2 SLP246 T01670083 51007
KDET 231353Z 03006KT 10SM CLR 15/09 A3025 RMK AO2 SLP246 T01500094
KDET 231253Z 01004KT 10SM CLR 12/09 A3025 RMK AO2 SLP244 T01220089
KDET 231153Z 35004KT 10SM CLR 09/07 A3023 RMK AO2 SLP239 T00940072 10100 20083 51006
KDET 231053Z 36005KT 10SM CLR 09/07 A3023 RMK AO2 SLP237 T00890067
KDET 230953Z 34004KT 10SM CLR 09/07 A3022 RMK AO2 SLP236 T00890072
KDET 230853Z 00000KT 8SM CLR 09/07 A3022 RMK AO2 SLP233 T00940072 58005
KDET 230753Z 00000KT 8SM CLR 09/07 A3022 RMK AO2 SLP235 T00890072
KDET 230653Z 00000KT 10SM CLR 09/07 A3023 RMK AO2 SLP238 T00940072
KDET 230553Z 00000KT 10SM CLR 09/07 A3023 RMK AO2 SLP239 T00940072 10144 20094 56005
KDET 230453Z 00000KT 10SM CLR 10/07 A3024 RMK AO2 SLP240 T01000072 401670100
KDET 230353Z 00000KT 10SM CLR 11/08 A3024 RMK AO2 SLP240 T01060078
KDET 230253Z 00000KT 10SM CLR 11/08 A3025 RMK AO2 SLP243 T01110078 55000
KDET 230153Z 00000KT 10SM CLR 12/08 A3024 RMK AO2 SLP243 T01170078
KDET 230053Z 00000KT 10SM CLR 13/08 A3025 RMK AO2 SLP243 T01280078
KDET 222353Z 00000KT 10SM CLR 14/07 A3025 RMK AO2 SLP244 T01440072 10167 20144 58004
KDET 222253Z 12005KT 10SM CLR 14/07 A3025 RMK AO2 SLP243 T01440072
KDET 222153Z 11004KT 10SM BKN043 15/07 A3026 RMK AO2 SLP247 T01500072
KDET 222053Z 15006KT 10SM BKN040 16/08 A3026 RMK AO2 SLP247 T01560078 56020
KDET 221953Z 07004KT 10SM OVC039 16/08 A3027 RMK AO2 SLP252 T01560078
KDET 221853Z 12005KT 10SM OVC037 16/08 A3029 RMK AO2 SLP259 T01560078
KDET 221753Z 06004KT 10SM OVC036 15/08 A3032 RMK AO2 SLP266 T01500078 10156 20111 56006